Scobey, Montana
Current Conditions -  °F | °C
As of 4:53 AM on Monday 20 Oct 2014 (Local Time) from KOLF Reporting Station
Clear Clear  
Wind Chill: 32°   Ceiling: Unl
Heat Index: 36°   Visibility: 10mi
Dew Point: 33°   Wind: 5mph
Humidity: 89%   Direction: 60°ENE
Pressure: 29.93"   Gusts: NA
Location:  48.79°N, 105.42°W
Report Text: KOLF 201053Z AUTO 06004KT 10SM CLR 02/01 A2993 RMK AO2 SLP139 T00220006
Loading
Personal Weather Stations






























Interactive Weather Map
Tropical Storm Tracking
New forecast layout! Learn more

10-Day Weather Forecast

Advertisements
Track Severe Weather on mobile